Tasinge Maersk — OUSX2 — position and weather

sailwx.info

Track history (hours):
 
Tides and Currents Weather Stations Pressure Air Temp Water Temp Dewpoint Dewpoint Depression Visibility Wind Speed Wind Dir Waves Ship Positions

Tasinge Maersk

Last reported at 2016-Sep-10 18:09 UTC. Time now 2016-Sep-25 20:56 UTC.
Position N 25°38' W 015°45'.
Warning: this ship's position is 15 days out of date.

Length 191 m; draft 9.4 m.

Type: Cargo ship. MMSI: 220157000.

Date/timePositionNaut miles runAvg speedWind from/ knotsBaromVisibWave heightAir tempDewpointWater temp
2016-Sep-10 18:09N 25°38' W 015°45'910.0
2016-Sep-10 17:17N 25°45' W 015°39'14910.0
2016-Sep-10 02:17N 27°43' W 013°56'1010.5
2016-Sep-10 01:20N 27°50' W 013°49'910.8
2016-Sep-10 00:29N 27°58' W 013°42'  
2016-Sep-07 19:25N 34°55' W 007°12'910.3
2016-Sep-07 18:30N 35°02' W 007°04'2110.0
2016-Sep-07 16:25N 35°16' W 006°46'50 9.7
2016-Sep-07 11:16N 35°52' W 006°02'8 8.3
2016-Sep-07 10:20N 35°57' W 005°54'8 7.9
2016-Sep-07 09:17N 35°57' W 005°44'7 6.9
2016-Sep-07 08:20N 35°57' W 005°36'5 6.5
2016-Sep-07 07:33N 35°59' W 005°30'7 7.4
2016-Sep-07 06:33N 36°04' W 005°23'6 1.2
2016-Sep-07 01:33N 36°09' W 005°26'0 0.0
2016-Sep-06 22:27N 36°09' W 005°26'0 0.0
2016-Sep-06 21:09N 36°09' W 005°26'0 0.0
2016-Sep-06 20:33N 36°09' W 005°26'0 0.0
2016-Sep-06 19:30N 36°09' W 005°26'0 0.0
2016-Sep-06 18:33N 36°09' W 005°26'0 0.0
2016-Sep-06 17:30N 36°09' W 005°26'0 0.0
2016-Sep-06 16:33N 36°09' W 005°26'0 0.0
2016-Sep-06 15:33N 36°09' W 005°26'0 0.0
2016-Sep-06 14:33N 36°09' W 005°26'0 0.0
2016-Sep-06 13:30N 36°09' W 005°26'0 0.5
2016-Sep-06 12:33N 36°09' W 005°26'7 6.5
2016-Sep-06 11:33N 36°04' W 005°20'6 6.0
2016-Sep-06 10:34N 36°07' W 005°13'4 3.5
2016-Sep-06 09:34N 36°04' W 005°16'4 4.4
2016-Sep-06 08:34N 36°02' W 005°21'6 5.8
2016-Sep-06 07:34N 35°58' W 005°26'5 0.2
2016-Sep-05 06:13N 35°54' W 005°30'4 1.2
2016-Sep-05 03:04N 35°52' W 005°34'2 3.2
2016-Sep-05 02:33N 35°54' W 005°34'5 4.8
2016-Sep-05 01:33N 35°58' W 005°30'9 9.4
2016-Sep-05 00:33N 36°01' W 005°19'1111.0
2016-Sep-04 23:32N 36°05' W 005°06'7 0.5
2016-Sep-04 08:33N 36°00' W 005°13'10 9.8
2016-Sep-04 07:33N 35°58' W 005°25'7610.2
2016-Sep-04 00:05N 35°17' W 006°44'2610.3
2016-Sep-03 21:33N 34°60' W 007°08'5210.3
2016-Sep-03 16:30N 34°23' W 007°53'2010.2
2016-Sep-03 14:33N 34°09' W 008°10'1410.1
2016-Sep-03 13:09N 33°59' W 008°22'610.1
2016-Sep-03 12:32N 33°55' W 008°28'77 9.6
2016-Sep-03 04:33N 33°02' W 009°34'9 9.4
2016-Sep-03 03:33N 32°55' W 009°41'1010.1
2016-Sep-03 02:33N 32°48' W 009°50'14 9.7
2016-Sep-03 01:07N 32°38' W 010°02'47 9.3
2016-Sep-02 20:08N 31°59' W 010°32'5 9.0
2016-Sep-02 19:33N 31°55' W 010°35'9 8.9
2016-Sep-02 18:33N 31°47' W 010°41'9 9.1
2016-Sep-02 17:33N 31°40' W 010°47'14 9.6
2016-Sep-02 16:08N 31°29' W 010°57'610.1
2016-Sep-02 15:30N 31°24' W 011°01'10 9.8
2016-Sep-02 14:29N 31°15' W 011°07'11 9.6
2016-Sep-02 13:18N 31°06' W 011°15'7 9.7
2016-Sep-02 12:32N 30°60' W 011°20'48 9.4
2016-Sep-02 07:26N 30°20' W 011°51'8 9.4
2016-Sep-02 06:33N 30°13' W 011°57'20 9.3
2016-Sep-02 04:24N 29°56' W 012°09'10 8.8
2016-Sep-02 03:15N 29°48' W 012°16'17 8.7
2016-Sep-02 01:19N 29°34' W 012°27'18 8.5
2016-Sep-01 23:10N 29°19' W 012°39'5 8.5
2016-Sep-01 22:33N 29°15' W 012°42'8 8.5
2016-Sep-01 21:33N 29°08' W 012°47'9 8.6
2016-Sep-01 20:33N 29°01' W 012°53'8 8.4
2016-Sep-01 19:33N 28°54' W 012°58'8 8.3
2016-Sep-01 18:33N 28°47' W 013°04'8 8.1
2016-Sep-01 17:33N 28°40' W 013°09'8 8.1
2016-Sep-01 16:33N 28°34' W 013°14'9 8.8
2016-Sep-01 15:33N 28°26' W 013°20'9 8.8
2016-Sep-01 14:33N 28°19' W 013°25'9 8.5
2016-Sep-01 13:30N 28°12' W 013°31'8 8.3
2016-Sep-01 12:33N 28°05' W 013°36'8 8.3
2016-Sep-01 11:33N 27°58' W 013°42'9 8.8
2016-Sep-01 10:33N 27°51' W 013°48'1010.3
2016-Sep-01 09:33N 27°43' W 013°55'10 9.6
2016-Sep-01 08:34N 27°36' W 014°02'  
Track history (hours):
 
Tides and Currents Weather Stations Pressure Air Temp Water Temp Dewpoint Dewpoint Depression Visibility Wind Speed Wind Dir Waves Ship Positions

Tasinge Maersk

Last reported at 2016-Sep-10 18:09 UTC. Time now 2016-Sep-25 20:56 UTC.
Position N 25°38' W 015°45'.
Warning: this ship's position is 15 days out of date.

Length 191 m; draft 9.4 m.

Type: Cargo ship. MMSI: 220157000.

Date/timePositionNaut miles runAvg speedWind from/ knotsBaromVisibWave heightAir tempDewpointWater temp
2016-Sep-10 18:09N 25°38' W 015°45'910.0
2016-Sep-10 17:17N 25°45' W 015°39'14910.0
2016-Sep-10 02:17N 27°43' W 013°56'1010.5
2016-Sep-10 01:20N 27°50' W 013°49'910.8
2016-Sep-10 00:29N 27°58' W 013°42'  
2016-Sep-07 19:25N 34°55' W 007°12'910.3
2016-Sep-07 18:30N 35°02' W 007°04'2110.0
2016-Sep-07 16:25N 35°16' W 006°46'50 9.7
2016-Sep-07 11:16N 35°52' W 006°02'8 8.3
2016-Sep-07 10:20N 35°57' W 005°54'8 7.9
2016-Sep-07 09:17N 35°57' W 005°44'7 6.9
2016-Sep-07 08:20N 35°57' W 005°36'5 6.5
2016-Sep-07 07:33N 35°59' W 005°30'7 7.4
2016-Sep-07 06:33N 36°04' W 005°23'6 1.2
2016-Sep-07 01:33N 36°09' W 005°26'0 0.0
2016-Sep-06 22:27N 36°09' W 005°26'0 0.0
2016-Sep-06 21:09N 36°09' W 005°26'0 0.0
2016-Sep-06 20:33N 36°09' W 005°26'0 0.0
2016-Sep-06 19:30N 36°09' W 005°26'0 0.0
2016-Sep-06 18:33N 36°09' W 005°26'0 0.0
2016-Sep-06 17:30N 36°09' W 005°26'0 0.0
2016-Sep-06 16:33N 36°09' W 005°26'0 0.0
2016-Sep-06 15:33N 36°09' W 005°26'0 0.0
2016-Sep-06 14:33N 36°09' W 005°26'0 0.0
2016-Sep-06 13:30N 36°09' W 005°26'0 0.5
2016-Sep-06 12:33N 36°09' W 005°26'7 6.5
2016-Sep-06 11:33N 36°04' W 005°20'6 6.0
2016-Sep-06 10:34N 36°07' W 005°13'4 3.5
2016-Sep-06 09:34N 36°04' W 005°16'4 4.4
2016-Sep-06 08:34N 36°02' W 005°21'6 5.8
2016-Sep-06 07:34N 35°58' W 005°26'5 0.2
2016-Sep-05 06:13N 35°54' W 005°30'4 1.2
2016-Sep-05 03:04N 35°52' W 005°34'2 3.2
2016-Sep-05 02:33N 35°54' W 005°34'5 4.8
2016-Sep-05 01:33N 35°58' W 005°30'9 9.4
2016-Sep-05 00:33N 36°01' W 005°19'1111.0
2016-Sep-04 23:32N 36°05' W 005°06'7 0.5
2016-Sep-04 08:33N 36°00' W 005°13'10 9.8
2016-Sep-04 07:33N 35°58' W 005°25'7610.2
2016-Sep-04 00:05N 35°17' W 006°44'2610.3
2016-Sep-03 21:33N 34°60' W 007°08'5210.3
2016-Sep-03 16:30N 34°23' W 007°53'2010.2
2016-Sep-03 14:33N 34°09' W 008°10'1410.1
2016-Sep-03 13:09N 33°59' W 008°22'610.1
2016-Sep-03 12:32N 33°55' W 008°28'77 9.6
2016-Sep-03 04:33N 33°02' W 009°34'9 9.4
2016-Sep-03 03:33N 32°55' W 009°41'1010.1
2016-Sep-03 02:33N 32°48' W 009°50'14 9.7
2016-Sep-03 01:07N 32°38' W 010°02'47 9.3
2016-Sep-02 20:08N 31°59' W 010°32'5 9.0
2016-Sep-02 19:33N 31°55' W 010°35'9 8.9
2016-Sep-02 18:33N 31°47' W 010°41'9 9.1
2016-Sep-02 17:33N 31°40' W 010°47'14 9.6
2016-Sep-02 16:08N 31°29' W 010°57'610.1
2016-Sep-02 15:30N 31°24' W 011°01'10 9.8
2016-Sep-02 14:29N 31°15' W 011°07'11 9.6
2016-Sep-02 13:18N 31°06' W 011°15'7 9.7
2016-Sep-02 12:32N 30°60' W 011°20'48 9.4
2016-Sep-02 07:26N 30°20' W 011°51'8 9.4
2016-Sep-02 06:33N 30°13' W 011°57'20 9.3
2016-Sep-02 04:24N 29°56' W 012°09'10 8.8
2016-Sep-02 03:15N 29°48' W 012°16'17 8.7
2016-Sep-02 01:19N 29°34' W 012°27'18 8.5
2016-Sep-01 23:10N 29°19' W 012°39'5 8.5
2016-Sep-01 22:33N 29°15' W 012°42'8 8.5
2016-Sep-01 21:33N 29°08' W 012°47'9 8.6
2016-Sep-01 20:33N 29°01' W 012°53'8 8.4
2016-Sep-01 19:33N 28°54' W 012°58'8 8.3
2016-Sep-01 18:33N 28°47' W 013°04'8 8.1
2016-Sep-01 17:33N 28°40' W 013°09'8 8.1
2016-Sep-01 16:33N 28°34' W 013°14'9 8.8
2016-Sep-01 15:33N 28°26' W 013°20'9 8.8
2016-Sep-01 14:33N 28°19' W 013°25'9 8.5
2016-Sep-01 13:30N 28°12' W 013°31'8 8.3
2016-Sep-01 12:33N 28°05' W 013°36'8 8.3
2016-Sep-01 11:33N 27°58' W 013°42'9 8.8
2016-Sep-01 10:33N 27°51' W 013°48'1010.3
2016-Sep-01 09:33N 27°43' W 013°55'10 9.6
2016-Sep-01 08:34N 27°36' W 014°02'  

Dump ship's entire track history